sensor_id;sensor_type;location;lat;lon;timestamp;pressure;altitude;pressure_sealevel;temperature
19666;BMP180;9980;51.020;7.772;2023-02-03T00:01:59;98311.00;;;11.30
19666;BMP180;9980;51.020;7.772;2023-02-03T00:04:25;98308.00;;;11.30
19666;BMP180;9980;51.020;7.772;2023-02-03T00:06:52;98292.00;;;11.30
19666;BMP180;9980;51.020;7.772;2023-02-03T00:09:19;98308.00;;;11.30
19666;BMP180;9980;51.020;7.772;2023-02-03T00:11:46;98290.00;;;11.30
19666;BMP180;9980;51.020;7.772;2023-02-03T00:14:12;98280.00;;;11.30
19666;BMP180;9980;51.020;7.772;2023-02-03T00:16:38;98289.00;;;11.30
19666;BMP180;9980;51.020;7.772;2023-02-03T00:19:04;98271.00;;;11.30
19666;BMP180;9980;51.020;7.772;2023-02-03T00:21:30;98297.00;;;11.30
19666;BMP180;9980;51.020;7.772;2023-02-03T00:23:57;98269.00;;;11.30
19666;BMP180;9980;51.020;7.772;2023-02-03T00:26:23;98244.00;;;11.30
19666;BMP180;9980;51.020;7.772;2023-02-03T00:28:50;98260.00;;;11.30
19666;BMP180;9980;51.020;7.772;2023-02-03T00:31:23;98256.00;;;11.30
19666;BMP180;9980;51.020;7.772;2023-02-03T00:33:55;98248.00;;;11.30
19666;BMP180;9980;51.020;7.772;2023-02-03T00:36:23;98255.00;;;11.30
19666;BMP180;9980;51.020;7.772;2023-02-03T00:38:49;98254.00;;;11.30
19666;BMP180;9980;51.020;7.772;2023-02-03T00:41:16;98238.00;;;11.30
19666;BMP180;9980;51.020;7.772;2023-02-03T00:43:43;98242.00;;;11.30
19666;BMP180;9980;51.020;7.772;2023-02-03T00:46:09;98220.00;;;11.30
19666;BMP180;9980;51.020;7.772;2023-02-03T00:48:35;98253.00;;;11.30
19666;BMP180;9980;51.020;7.772;2023-02-03T00:51:02;98282.00;;;11.30
19666;BMP180;9980;51.020;7.772;2023-02-03T00:53:28;98247.00;;;11.30
19666;BMP180;9980;51.020;7.772;2023-02-03T00:55:54;98254.00;;;11.30
19666;BMP180;9980;51.020;7.772;2023-02-03T00:58:21;98233.00;;;11.30
19666;BMP180;9980;51.020;7.772;2023-02-03T01:00:47;98248.00;;;11.30
19666;BMP180;9980;51.020;7.772;2023-02-03T01:03:15;98251.00;;;11.30
19666;BMP180;9980;51.020;7.772;2023-02-03T01:05:41;98250.00;;;11.30
19666;BMP180;9980;51.020;7.772;2023-02-03T01:08:07;98237.00;;;11.30
19666;BMP180;9980;51.020;7.772;2023-02-03T01:10:36;98254.00;;;11.30
19666;BMP180;9980;51.020;7.772;2023-02-03T01:13:03;98241.00;;;11.30
19666;BMP180;9980;51.020;7.772;2023-02-03T01:15:29;98232.00;;;11.30
19666;BMP180;9980;51.020;7.772;2023-02-03T01:17:56;98219.00;;;11.30
19666;BMP180;9980;51.020;7.772;2023-02-03T01:20:22;98243.00;;;11.30
19666;BMP180;9980;51.020;7.772;2023-02-03T01:22:49;98252.00;;;11.30
19666;BMP180;9980;51.020;7.772;2023-02-03T01:25:16;98248.00;;;11.30
19666;BMP180;9980;51.020;7.772;2023-02-03T01:27:42;98249.00;;;11.30
19666;BMP180;9980;51.020;7.772;2023-02-03T01:30:09;98263.00;;;11.30
19666;BMP180;9980;51.020;7.772;2023-02-03T01:32:35;98267.00;;;11.30
19666;BMP180;9980;51.020;7.772;2023-02-03T01:35:03;98278.00;;;11.30
19666;BMP180;9980;51.020;7.772;2023-02-03T01:37:30;98272.00;;;11.30
19666;BMP180;9980;51.020;7.772;2023-02-03T01:39:56;98271.00;;;11.30
19666;BMP180;9980;51.020;7.772;2023-02-03T01:42:22;98278.00;;;11.30
19666;BMP180;9980;51.020;7.772;2023-02-03T01:44:50;98288.00;;;11.30
19666;BMP180;9980;51.020;7.772;2023-02-03T01:49:59;98269.00;;;11.40
19666;BMP180;9980;51.020;7.772;2023-02-03T01:52:29;98270.00;;;11.40
19666;BMP180;9980;51.020;7.772;2023-02-03T01:54:59;98257.00;;;11.30
19666;BMP180;9980;51.020;7.772;2023-02-03T01:57:38;98266.00;;;11.30
19666;BMP180;9980;51.020;7.772;2023-02-03T02:00:06;98281.00;;;11.40
19666;BMP180;9980;51.020;7.772;2023-02-03T02:02:44;98234.00;;;11.40
19666;BMP180;9980;51.020;7.772;2023-02-03T02:07:50;98225.00;;;11.40
19666;BMP180;9980;51.020;7.772;2023-02-03T02:10:16;98293.00;;;11.40
19666;BMP180;9980;51.020;7.772;2023-02-03T02:12:43;98283.00;;;11.40
19666;BMP180;9980;51.020;7.772;2023-02-03T02:15:10;98232.00;;;11.40
19666;BMP180;9980;51.020;7.772;2023-02-03T02:18:10;98249.00;;;11.20
19666;BMP180;9980;51.020;7.772;2023-02-03T02:24:07;98265.00;;;11.30
19666;BMP180;9980;51.020;7.772;2023-02-03T02:41:18;98254.00;;;11.30
19666;BMP180;9980;51.020;7.772;2023-02-03T02:44:00;98250.00;;;11.30
19666;BMP180;9980;51.020;7.772;2023-02-03T02:46:46;98235.00;;;11.30
19666;BMP180;9980;51.020;7.772;2023-02-03T02:49:34;98249.00;;;11.30
19666;BMP180;9980;51.020;7.772;2023-02-03T02:52:06;98234.00;;;11.40
19666;BMP180;9980;51.020;7.772;2023-02-03T02:54:38;98216.00;;;11.40
19666;BMP180;9980;51.020;7.772;2023-02-03T02:57:10;98202.00;;;11.40
19666;BMP180;9980;51.020;7.772;2023-02-03T02:59:38;98175.00;;;11.40
19666;BMP180;9980;51.020;7.772;2023-02-03T03:02:04;98217.00;;;11.40
19666;BMP180;9980;51.020;7.772;2023-02-03T03:04:33;98223.00;;;11.40
19666;BMP180;9980;51.020;7.772;2023-02-03T03:07:07;98232.00;;;11.40
19666;BMP180;9980;51.020;7.772;2023-02-03T03:09:53;98181.00;;;11.40
19666;BMP180;9980;51.020;7.772;2023-02-03T03:12:29;98231.00;;;11.40
19666;BMP180;9980;51.020;7.772;2023-02-03T03:15:13;98219.00;;;11.40
19666;BMP180;9980;51.020;7.772;2023-02-03T03:17:50;98216.00;;;11.40
19666;BMP180;9980;51.020;7.772;2023-02-03T03:20:24;98188.00;;;11.30
19666;BMP180;9980;51.020;7.772;2023-02-03T03:23:00;98169.00;;;11.30
19666;BMP180;9980;51.020;7.772;2023-02-03T03:25:40;98162.00;;;11.20
19666;BMP180;9980;51.020;7.772;2023-02-03T03:28:16;98203.00;;;11.30
19666;BMP180;9980;51.020;7.772;2023-02-03T03:30:44;98213.00;;;11.40
19666;BMP180;9980;51.020;7.772;2023-02-03T03:33:10;98230.00;;;11.40
19666;BMP180;9980;51.020;7.772;2023-02-03T03:36:13;98258.00;;;11.30
19666;BMP180;9980;51.020;7.772;2023-02-03T03:39:51;98269.00;;;11.30
19666;BMP180;9980;51.020;7.772;2023-02-03T03:42:05;98280.00;;;11.30
19666;BMP180;9980;51.020;7.772;2023-02-03T03:44:42;98285.00;;;11.40
19666;BMP180;9980;51.020;7.772;2023-02-03T03:47:54;98257.00;;;11.30
19666;BMP180;9980;51.020;7.772;2023-02-03T03:50:31;98237.00;;;11.30
19666;BMP180;9980;51.020;7.772;2023-02-03T03:53:02;98245.00;;;11.30
19666;BMP180;9980;51.020;7.772;2023-02-03T03:55:32;98238.00;;;11.30
19666;BMP180;9980;51.020;7.772;2023-02-03T03:58:27;98235.00;;;11.30
19666;BMP180;9980;51.020;7.772;2023-02-03T04:00:59;98242.00;;;11.30
19666;BMP180;9980;51.020;7.772;2023-02-03T04:03:42;98224.00;;;11.30
19666;BMP180;9980;51.020;7.772;2023-02-03T04:06:10;98250.00;;;11.30
19666;BMP180;9980;51.020;7.772;2023-02-03T04:08:37;98221.00;;;11.30
19666;BMP180;9980;51.020;7.772;2023-02-03T04:11:05;98238.00;;;11.40
19666;BMP180;9980;51.020;7.772;2023-02-03T04:13:31;98238.00;;;11.40
19666;BMP180;9980;51.020;7.772;2023-02-03T04:15:58;98218.00;;;11.40
19666;BMP180;9980;51.020;7.772;2023-02-03T04:18:24;98222.00;;;11.40
19666;BMP180;9980;51.020;7.772;2023-02-03T04:20:50;98227.00;;;11.40
19666;BMP180;9980;51.020;7.772;2023-02-03T04:23:16;98210.00;;;11.40
19666;BMP180;9980;51.020;7.772;2023-02-03T04:25:42;98221.00;;;11.40
19666;BMP180;9980;51.020;7.772;2023-02-03T04:28:09;98202.00;;;11.40
19666;BMP180;9980;51.020;7.772;2023-02-03T04:30:35;98224.00;;;11.40
19666;BMP180;9980;51.020;7.772;2023-02-03T04:33:01;98225.00;;;11.40
19666;BMP180;9980;51.020;7.772;2023-02-03T04:35:28;98215.00;;;11.30
19666;BMP180;9980;51.020;7.772;2023-02-03T04:37:54;98212.00;;;11.40
19666;BMP180;9980;51.020;7.772;2023-02-03T04:40:20;98207.00;;;11.40
19666;BMP180;9980;51.020;7.772;2023-02-03T04:42:46;98211.00;;;11.40
19666;BMP180;9980;51.020;7.772;2023-02-03T04:45:13;98191.00;;;11.40
19666;BMP180;9980;51.020;7.772;2023-02-03T04:47:39;98191.00;;;11.40
19666;BMP180;9980;51.020;7.772;2023-02-03T04:50:06;98198.00;;;11.40
19666;BMP180;9980;51.020;7.772;2023-02-03T04:52:32;98194.00;;;11.40
19666;BMP180;9980;51.020;7.772;2023-02-03T04:54:58;98171.00;;;11.30
19666;BMP180;9980;51.020;7.772;2023-02-03T04:57:25;98199.00;;;11.40
19666;BMP180;9980;51.020;7.772;2023-02-03T04:59:51;98201.00;;;11.40
19666;BMP180;9980;51.020;7.772;2023-02-03T05:02:17;98207.00;;;11.40
19666;BMP180;9980;51.020;7.772;2023-02-03T05:04:43;98213.00;;;11.40
19666;BMP180;9980;51.020;7.772;2023-02-03T05:07:10;98203.00;;;11.40
19666;BMP180;9980;51.020;7.772;2023-02-03T05:09:36;98206.00;;;11.30
19666;BMP180;9980;51.020;7.772;2023-02-03T05:12:02;98198.00;;;11.40
19666;BMP180;9980;51.020;7.772;2023-02-03T05:14:29;98182.00;;;11.40
19666;BMP180;9980;51.020;7.772;2023-02-03T05:16:55;98197.00;;;11.40
19666;BMP180;9980;51.020;7.772;2023-02-03T05:19:21;98185.00;;;11.40
19666;BMP180;9980;51.020;7.772;2023-02-03T05:21:47;98197.00;;;11.40
19666;BMP180;9980;51.020;7.772;2023-02-03T05:24:14;98187.00;;;11.40
19666;BMP180;9980;51.020;7.772;2023-02-03T05:26:40;98188.00;;;11.40
19666;BMP180;9980;51.020;7.772;2023-02-03T05:29:06;98172.00;;;11.40
19666;BMP180;9980;51.020;7.772;2023-02-03T05:31:33;98194.00;;;11.40
19666;BMP180;9980;51.020;7.772;2023-02-03T05:33:59;98191.00;;;11.40
19666;BMP180;9980;51.020;7.772;2023-02-03T05:36:25;98176.00;;;11.40
19666;BMP180;9980;51.020;7.772;2023-02-03T05:38:52;98174.00;;;11.40
19666;BMP180;9980;51.020;7.772;2023-02-03T05:41:18;98167.00;;;11.40
19666;BMP180;9980;51.020;7.772;2023-02-03T05:44:03;98187.00;;;11.40
19666;BMP180;9980;51.020;7.772;2023-02-03T05:46:29;98177.00;;;11.40
19666;BMP180;9980;51.020;7.772;2023-02-03T05:48:56;98186.00;;;11.40
19666;BMP180;9980;51.020;7.772;2023-02-03T05:51:22;98194.00;;;11.40
19666;BMP180;9980;51.020;7.772;2023-02-03T05:53:49;98192.00;;;11.40
19666;BMP180;9980;51.020;7.772;2023-02-03T05:56:16;98197.00;;;11.40
19666;BMP180;9980;51.020;7.772;2023-02-03T05:58:42;98202.00;;;11.40
19666;BMP180;9980;51.020;7.772;2023-02-03T06:01:08;98185.00;;;11.40
19666;BMP180;9980;51.020;7.772;2023-02-03T06:03:36;98181.00;;;11.40
19666;BMP180;9980;51.020;7.772;2023-02-03T06:06:03;98197.00;;;11.40
19666;BMP180;9980;51.020;7.772;2023-02-03T06:08:29;98191.00;;;11.40
19666;BMP180;9980;51.020;7.772;2023-02-03T06:10:58;98192.00;;;11.40
19666;BMP180;9980;51.020;7.772;2023-02-03T06:13:26;98193.00;;;11.40
19666;BMP180;9980;51.020;7.772;2023-02-03T06:15:52;98183.00;;;11.40
19666;BMP180;9980;51.020;7.772;2023-02-03T06:18:20;98204.00;;;11.40
19666;BMP180;9980;51.020;7.772;2023-02-03T06:20:46;98191.00;;;11.40
19666;BMP180;9980;51.020;7.772;2023-02-03T06:23:13;98197.00;;;11.40
19666;BMP180;9980;51.020;7.772;2023-02-03T06:25:39;98197.00;;;11.40
19666;BMP180;9980;51.020;7.772;2023-02-03T06:28:05;98199.00;;;11.40
19666;BMP180;9980;51.020;7.772;2023-02-03T06:30:31;98212.00;;;11.40
19666;BMP180;9980;51.020;7.772;2023-02-03T06:32:57;98225.00;;;11.40
19666;BMP180;9980;51.020;7.772;2023-02-03T06:35:24;98215.00;;;11.40
19666;BMP180;9980;51.020;7.772;2023-02-03T06:37:50;98204.00;;;11.40
19666;BMP180;9980;51.020;7.772;2023-02-03T06:40:17;98231.00;;;11.40
19666;BMP180;9980;51.020;7.772;2023-02-03T06:42:47;98210.00;;;11.40
19666;BMP180;9980;51.020;7.772;2023-02-03T06:45:14;98202.00;;;11.40
19666;BMP180;9980;51.020;7.772;2023-02-03T06:47:42;98200.00;;;11.40
19666;BMP180;9980;51.020;7.772;2023-02-03T06:50:12;98201.00;;;11.40
19666;BMP180;9980;51.020;7.772;2023-02-03T06:52:38;98202.00;;;11.40
19666;BMP180;9980;51.020;7.772;2023-02-03T06:55:06;98187.00;;;11.40
19666;BMP180;9980;51.020;7.772;2023-02-03T06:57:32;98204.00;;;11.40
19666;BMP180;9980;51.020;7.772;2023-02-03T06:59:59;98202.00;;;11.40
19666;BMP180;9980;51.020;7.772;2023-02-03T07:02:25;98221.00;;;11.40
19666;BMP180;9980;51.020;7.772;2023-02-03T07:04:51;98201.00;;;11.40
19666;BMP180;9980;51.020;7.772;2023-02-03T07:07:17;98197.00;;;11.40
19666;BMP180;9980;51.020;7.772;2023-02-03T07:09:44;98211.00;;;11.40
19666;BMP180;9980;51.020;7.772;2023-02-03T07:12:10;98221.00;;;11.30
19666;BMP180;9980;51.020;7.772;2023-02-03T07:14:36;98203.00;;;11.40
19666;BMP180;9980;51.020;7.772;2023-02-03T07:17:05;98211.00;;;11.40
19666;BMP180;9980;51.020;7.772;2023-02-03T07:19:31;98220.00;;;11.40
19666;BMP180;9980;51.020;7.772;2023-02-03T07:21:58;98228.00;;;11.40
19666;BMP180;9980;51.020;7.772;2023-02-03T07:24:24;98211.00;;;11.40
19666;BMP180;9980;51.020;7.772;2023-02-03T07:26:51;98228.00;;;11.40
19666;BMP180;9980;51.020;7.772;2023-02-03T07:29:18;98225.00;;;11.40
19666;BMP180;9980;51.020;7.772;2023-02-03T07:31:44;98196.00;;;11.40
19666;BMP180;9980;51.020;7.772;2023-02-03T07:34:10;98193.00;;;11.40
19666;BMP180;9980;51.020;7.772;2023-02-03T07:36:37;98195.00;;;11.40
19666;BMP180;9980;51.020;7.772;2023-02-03T07:39:03;98190.00;;;11.40
19666;BMP180;9980;51.020;7.772;2023-02-03T07:41:29;98216.00;;;11.40
19666;BMP180;9980;51.020;7.772;2023-02-03T07:43:56;98190.00;;;11.40
19666;BMP180;9980;51.020;7.772;2023-02-03T07:46:22;98184.00;;;11.40
19666;BMP180;9980;51.020;7.772;2023-02-03T07:48:48;98194.00;;;11.30
19666;BMP180;9980;51.020;7.772;2023-02-03T07:51:14;98190.00;;;11.40
19666;BMP180;9980;51.020;7.772;2023-02-03T07:53:41;98188.00;;;11.40
19666;BMP180;9980;51.020;7.772;2023-02-03T07:56:07;98188.00;;;11.40
19666;BMP180;9980;51.020;7.772;2023-02-03T07:58:34;98209.00;;;11.40
19666;BMP180;9980;51.020;7.772;2023-02-03T08:01:00;98193.00;;;11.40
19666;BMP180;9980;51.020;7.772;2023-02-03T08:03:26;98174.00;;;11.40
19666;BMP180;9980;51.020;7.772;2023-02-03T08:05:52;98202.00;;;11.40
19666;BMP180;9980;51.020;7.772;2023-02-03T08:08:19;98202.00;;;11.40
19666;BMP180;9980;51.020;7.772;2023-02-03T08:10:46;98193.00;;;11.40
19666;BMP180;9980;51.020;7.772;2023-02-03T08:13:12;98151.00;;;11.40
19666;BMP180;9980;51.020;7.772;2023-02-03T08:15:38;98193.00;;;11.40
19666;BMP180;9980;51.020;7.772;2023-02-03T08:18:05;98198.00;;;11.40
19666;BMP180;9980;51.020;7.772;2023-02-03T08:20:34;98192.00;;;11.40
19666;BMP180;9980;51.020;7.772;2023-02-03T08:23:00;98207.00;;;11.40
19666;BMP180;9980;51.020;7.772;2023-02-03T08:25:27;98201.00;;;11.40
19666;BMP180;9980;51.020;7.772;2023-02-03T08:27:53;98210.00;;;11.40
19666;BMP180;9980;51.020;7.772;2023-02-03T08:30:20;98245.00;;;11.40
19666;BMP180;9980;51.020;7.772;2023-02-03T08:32:47;98207.00;;;11.40
19666;BMP180;9980;51.020;7.772;2023-02-03T08:35:13;98220.00;;;11.40
19666;BMP180;9980;51.020;7.772;2023-02-03T08:37:40;98220.00;;;11.40
19666;BMP180;9980;51.020;7.772;2023-02-03T08:40:08;98210.00;;;11.40
19666;BMP180;9980;51.020;7.772;2023-02-03T08:42:38;98198.00;;;11.40
19666;BMP180;9980;51.020;7.772;2023-02-03T08:45:05;98182.00;;;11.40
19666;BMP180;9980;51.020;7.772;2023-02-03T08:47:32;98225.00;;;11.40
19666;BMP180;9980;51.020;7.772;2023-02-03T08:49:58;98196.00;;;11.40
19666;BMP180;9980;51.020;7.772;2023-02-03T08:52:25;98204.00;;;11.40
19666;BMP180;9980;51.020;7.772;2023-02-03T08:54:51;98185.00;;;11.40
19666;BMP180;9980;51.020;7.772;2023-02-03T08:57:18;98181.00;;;11.40
19666;BMP180;9980;51.020;7.772;2023-02-03T08:59:49;98209.00;;;11.40
19666;BMP180;9980;51.020;7.772;2023-02-03T09:02:18;98221.00;;;11.40
19666;BMP180;9980;51.020;7.772;2023-02-03T09:04:45;98206.00;;;11.40
19666;BMP180;9980;51.020;7.772;2023-02-03T09:07:12;98214.00;;;11.40
19666;BMP180;9980;51.020;7.772;2023-02-03T09:09:39;98210.00;;;11.40
19666;BMP180;9980;51.020;7.772;2023-02-03T09:12:06;98223.00;;;11.40
19666;BMP180;9980;51.020;7.772;2023-02-03T09:14:34;98207.00;;;11.40
19666;BMP180;9980;51.020;7.772;2023-02-03T09:17:03;98195.00;;;11.40
19666;BMP180;9980;51.020;7.772;2023-02-03T09:19:30;98241.00;;;11.40
19666;BMP180;9980;51.020;7.772;2023-02-03T09:21:57;98215.00;;;11.40
19666;BMP180;9980;51.020;7.772;2023-02-03T09:24:23;98219.00;;;11.40
19666;BMP180;9980;51.020;7.772;2023-02-03T09:26:50;98205.00;;;11.40
19666;BMP180;9980;51.020;7.772;2023-02-03T09:29:16;98205.00;;;11.40
19666;BMP180;9980;51.020;7.772;2023-02-03T09:31:43;98232.00;;;11.40
19666;BMP180;9980;51.020;7.772;2023-02-03T09:34:12;98205.00;;;11.40
19666;BMP180;9980;51.020;7.772;2023-02-03T09:36:38;98221.00;;;11.40
19666;BMP180;9980;51.020;7.772;2023-02-03T09:39:06;98209.00;;;11.30
19666;BMP180;9980;51.020;7.772;2023-02-03T09:45:00;98212.00;;;11.30
19666;BMP180;9980;51.020;7.772;2023-02-03T09:47:38;98206.00;;;11.30
19666;BMP180;9980;51.020;7.772;2023-02-03T09:50:13;98203.00;;;11.30
19666;BMP180;9980;51.020;7.772;2023-02-03T09:52:43;98203.00;;;11.30
19666;BMP180;9980;51.020;7.772;2023-02-03T09:58:18;98216.00;;;11.30
19666;BMP180;9980;51.020;7.772;2023-02-03T10:00:52;98207.00;;;11.30
19666;BMP180;9980;51.020;7.772;2023-02-03T10:03:37;98207.00;;;11.30
19666;BMP180;9980;51.020;7.772;2023-02-03T10:06:38;98204.00;;;11.30
19666;BMP180;9980;51.020;7.772;2023-02-03T10:09:28;98214.00;;;11.30
19666;BMP180;9980;51.020;7.772;2023-02-03T10:12:30;98217.00;;;11.30
19666;BMP180;9980;51.020;7.772;2023-02-03T10:18:57;98208.00;;;11.30
19666;BMP180;9980;51.020;7.772;2023-02-03T10:21:48;98174.00;;;11.30
19666;BMP180;9980;51.020;7.772;2023-02-03T10:24:43;98217.00;;;11.30
19666;BMP180;9980;51.020;7.772;2023-02-03T10:27:19;98155.00;;;11.40
19666;BMP180;9980;51.020;7.772;2023-02-03T10:30:00;98184.00;;;11.40
19666;BMP180;9980;51.020;7.772;2023-02-03T10:32:28;98207.00;;;11.40
19666;BMP180;9980;51.020;7.772;2023-02-03T10:34:55;98215.00;;;11.40
19666;BMP180;9980;51.020;7.772;2023-02-03T10:37:32;98217.00;;;11.40
19666;BMP180;9980;51.020;7.772;2023-02-03T10:40:03;98217.00;;;11.40
19666;BMP180;9980;51.020;7.772;2023-02-03T10:42:31;98187.00;;;11.40
19666;BMP180;9980;51.020;7.772;2023-02-03T10:45:19;98217.00;;;11.40
19666;BMP180;9980;51.020;7.772;2023-02-03T10:47:54;98213.00;;;11.40
19666;BMP180;9980;51.020;7.772;2023-02-03T10:50:25;98230.00;;;11.40
19666;BMP180;9980;51.020;7.772;2023-02-03T10:53:25;98240.00;;;11.40
19666;BMP180;9980;51.020;7.772;2023-02-03T10:56:11;98225.00;;;11.40
19666;BMP180;9980;51.020;7.772;2023-02-03T10:58:46;98217.00;;;11.40
19666;BMP180;9980;51.020;7.772;2023-02-03T11:01:18;98236.00;;;11.50
19666;BMP180;9980;51.020;7.772;2023-02-03T11:04:01;98233.00;;;11.50
19666;BMP180;9980;51.020;7.772;2023-02-03T11:06:32;98216.00;;;11.50
19666;BMP180;9980;51.020;7.772;2023-02-03T11:08:59;98230.00;;;11.50
19666;BMP180;9980;51.020;7.772;2023-02-03T11:11:34;98236.00;;;11.50
19666;BMP180;9980;51.020;7.772;2023-02-03T11:16:34;98242.00;;;11.30
19666;BMP180;9980;51.020;7.772;2023-02-03T11:19:14;98228.00;;;11.50
19666;BMP180;9980;51.020;7.772;2023-02-03T11:21:48;98233.00;;;11.50
19666;BMP180;9980;51.020;7.772;2023-02-03T11:24:25;98210.00;;;11.50
19666;BMP180;9980;51.020;7.772;2023-02-03T11:29:29;98199.00;;;11.50
19666;BMP180;9980;51.020;7.772;2023-02-03T11:31:59;98187.00;;;11.50
19666;BMP180;9980;51.020;7.772;2023-02-03T11:34:34;98197.00;;;11.50
19666;BMP180;9980;51.020;7.772;2023-02-03T11:37:32;98204.00;;;11.50
19666;BMP180;9980;51.020;7.772;2023-02-03T11:42:40;98205.00;;;11.50
19666;BMP180;9980;51.020;7.772;2023-02-03T11:47:50;98217.00;;;11.50
19666;BMP180;9980;51.020;7.772;2023-02-03T12:07:42;98225.00;;;11.50
19666;BMP180;9980;51.020;7.772;2023-02-03T12:10:47;98195.00;;;11.50
19666;BMP180;9980;51.020;7.772;2023-02-03T12:20:00;98201.00;;;11.50
19666;BMP180;9980;51.020;7.772;2023-02-03T12:23:28;98204.00;;;11.50
19666;BMP180;9980;51.020;7.772;2023-02-03T12:29:10;98193.00;;;11.50
19666;BMP180;9980;51.020;7.772;2023-02-03T12:35:15;98208.00;;;11.50
19666;BMP180;9980;51.020;7.772;2023-02-03T12:40:53;98182.00;;;11.50
19666;BMP180;9980;51.020;7.772;2023-02-03T12:43:37;98190.00;;;11.50
19666;BMP180;9980;51.020;7.772;2023-02-03T12:49:25;98194.00;;;11.60
19666;BMP180;9980;51.020;7.772;2023-02-03T12:52:39;98190.00;;;11.60
19666;BMP180;9980;51.020;7.772;2023-02-03T12:55:30;98205.00;;;11.60
19666;BMP180;9980;51.020;7.772;2023-02-03T12:58:32;98194.00;;;11.60
19666;BMP180;9980;51.020;7.772;2023-02-03T13:01:25;98214.00;;;11.60
19666;BMP180;9980;51.020;7.772;2023-02-03T13:12:35;98193.00;;;11.70
19666;BMP180;9980;51.020;7.772;2023-02-03T13:15:29;98206.00;;;11.70
19666;BMP180;9980;51.020;7.772;2023-02-03T13:18:18;98197.00;;;11.70
19666;BMP180;9980;51.020;7.772;2023-02-03T13:20:45;98202.00;;;11.70
19666;BMP180;9980;51.020;7.772;2023-02-03T13:23:14;98150.00;;;11.70
19666;BMP180;9980;51.020;7.772;2023-02-03T13:32:09;98192.00;;;11.70
19666;BMP180;9980;51.020;7.772;2023-02-03T13:43:29;98203.00;;;11.80
19666;BMP180;9980;51.020;7.772;2023-02-03T13:46:07;98201.00;;;11.80
19666;BMP180;9980;51.020;7.772;2023-02-03T13:48:45;98202.00;;;11.80
19666;BMP180;9980;51.020;7.772;2023-02-03T13:51:13;98192.00;;;11.80
19666;BMP180;9980;51.020;7.772;2023-02-03T13:53:44;98178.00;;;11.80
19666;BMP180;9980;51.020;7.772;2023-02-03T13:56:24;98213.00;;;11.80
19666;BMP180;9980;51.020;7.772;2023-02-03T13:59:13;98199.00;;;11.80
19666;BMP180;9980;51.020;7.772;2023-02-03T14:01:45;98180.00;;;11.80
19666;BMP180;9980;51.020;7.772;2023-02-03T14:09:26;98193.00;;;11.90
19666;BMP180;9980;51.020;7.772;2023-02-03T14:12:30;98211.00;;;11.90
19666;BMP180;9980;51.020;7.772;2023-02-03T14:15:16;98192.00;;;11.90
19666;BMP180;9980;51.020;7.772;2023-02-03T14:25:33;98216.00;;;12.00
19666;BMP180;9980;51.020;7.772;2023-02-03T14:28:09;98212.00;;;12.00
19666;BMP180;9980;51.020;7.772;2023-02-03T14:31:16;98235.00;;;11.90
19666;BMP180;9980;51.020;7.772;2023-02-03T14:34:05;98215.00;;;12.00
19666;BMP180;9980;51.020;7.772;2023-02-03T14:36:50;98228.00;;;12.00
19666;BMP180;9980;51.020;7.772;2023-02-03T14:50:27;98253.00;;;12.00
19666;BMP180;9980;51.020;7.772;2023-02-03T14:56:06;98285.00;;;12.10
19666;BMP180;9980;51.020;7.772;2023-02-03T14:58:52;98256.00;;;12.10
19666;BMP180;9980;51.020;7.772;2023-02-03T15:06:49;98283.00;;;12.10
19666;BMP180;9980;51.020;7.772;2023-02-03T15:09:38;98285.00;;;12.10
19666;BMP180;9980;51.020;7.772;2023-02-03T15:12:22;98265.00;;;12.10
19666;BMP180;9980;51.020;7.772;2023-02-03T15:14:49;98283.00;;;12.10
19666;BMP180;9980;51.020;7.772;2023-02-03T15:17:24;98290.00;;;12.10
19666;BMP180;9980;51.020;7.772;2023-02-03T15:19:51;98305.00;;;12.10
19666;BMP180;9980;51.020;7.772;2023-02-03T15:22:27;98310.00;;;12.20
19666;BMP180;9980;51.020;7.772;2023-02-03T15:25:00;98273.00;;;12.20
19666;BMP180;9980;51.020;7.772;2023-02-03T15:27:32;98314.00;;;12.20
19666;BMP180;9980;51.020;7.772;2023-02-03T15:30:14;98322.00;;;12.20
19666;BMP180;9980;51.020;7.772;2023-02-03T15:32:47;98354.00;;;12.20
19666;BMP180;9980;51.020;7.772;2023-02-03T15:35:18;98377.00;;;12.20
19666;BMP180;9980;51.020;7.772;2023-02-03T15:37:54;98354.00;;;12.20
19666;BMP180;9980;51.020;7.772;2023-02-03T15:40:25;98380.00;;;12.10
19666;BMP180;9980;51.020;7.772;2023-02-03T15:43:06;98370.00;;;12.10
19666;BMP180;9980;51.020;7.772;2023-02-03T15:45:51;98368.00;;;12.00
19666;BMP180;9980;51.020;7.772;2023-02-03T15:48:40;98384.00;;;11.90
19666;BMP180;9980;51.020;7.772;2023-02-03T15:51:30;98370.00;;;11.90
19666;BMP180;9980;51.020;7.772;2023-02-03T15:54:30;98366.00;;;11.80
19666;BMP180;9980;51.020;7.772;2023-02-03T15:57:09;98345.00;;;11.80
19666;BMP180;9980;51.020;7.772;2023-02-03T15:59:59;98370.00;;;11.70
19666;BMP180;9980;51.020;7.772;2023-02-03T16:02:33;98360.00;;;11.70
19666;BMP180;9980;51.020;7.772;2023-02-03T16:05:33;98377.00;;;11.60
19666;BMP180;9980;51.020;7.772;2023-02-03T16:08:35;98376.00;;;11.60
19666;BMP180;9980;51.020;7.772;2023-02-03T16:13:57;98383.00;;;11.60
19666;BMP180;9980;51.020;7.772;2023-02-03T16:16:48;98375.00;;;11.50
19666;BMP180;9980;51.020;7.772;2023-02-03T16:19:31;98380.00;;;11.50
19666;BMP180;9980;51.020;7.772;2023-02-03T16:22:02;98354.00;;;11.50
19666;BMP180;9980;51.020;7.772;2023-02-03T16:30:14;98395.00;;;11.40
19666;BMP180;9980;51.020;7.772;2023-02-03T16:33:12;98390.00;;;11.40
19666;BMP180;9980;51.020;7.772;2023-02-03T16:36:10;98374.00;;;11.30
19666;BMP180;9980;51.020;7.772;2023-02-03T16:38:55;98371.00;;;11.30
19666;BMP180;9980;51.020;7.772;2023-02-03T16:41:40;98358.00;;;11.30
19666;BMP180;9980;51.020;7.772;2023-02-03T16:44:24;98359.00;;;11.20
19666;BMP180;9980;51.020;7.772;2023-02-03T16:47:29;98367.00;;;11.20
19666;BMP180;9980;51.020;7.772;2023-02-03T16:50:21;98368.00;;;11.20
19666;BMP180;9980;51.020;7.772;2023-02-03T16:53:14;98379.00;;;11.20
19666;BMP180;9980;51.020;7.772;2023-02-03T16:55:42;98382.00;;;11.20
19666;BMP180;9980;51.020;7.772;2023-02-03T16:58:09;98349.00;;;11.10
19666;BMP180;9980;51.020;7.772;2023-02-03T17:00:42;98372.00;;;11.10
19666;BMP180;9980;51.020;7.772;2023-02-03T17:03:13;98384.00;;;11.10
19666;BMP180;9980;51.020;7.772;2023-02-03T17:05:42;98386.00;;;11.10
19666;BMP180;9980;51.020;7.772;2023-02-03T17:08:09;98370.00;;;11.10
19666;BMP180;9980;51.020;7.772;2023-02-03T17:10:37;98383.00;;;11.10
19666;BMP180;9980;51.020;7.772;2023-02-03T17:13:04;98383.00;;;11.10
19666;BMP180;9980;51.020;7.772;2023-02-03T17:15:31;98399.00;;;11.10
19666;BMP180;9980;51.020;7.772;2023-02-03T17:17:57;98386.00;;;11.10
19666;BMP180;9980;51.020;7.772;2023-02-03T17:20:25;98367.00;;;11.00